createdAt,value
2023-04-17T00:01:56.994Z,22.00
2023-04-17T00:04:24.026Z,21.10
2023-04-17T00:06:54.134Z,24.80
2023-04-17T00:09:22.373Z,24.00
2023-04-17T00:11:49.647Z,21.10
2023-04-17T00:14:16.528Z,21.97
2023-04-17T00:16:43.767Z,21.27
2023-04-17T00:19:11.293Z,22.90
2023-04-17T00:21:38.788Z,22.30
2023-04-17T00:24:06.112Z,23.23
2023-04-17T00:26:34.662Z,23.67
2023-04-17T00:29:02.079Z,22.13
2023-04-17T00:31:29.067Z,20.33
2023-04-17T00:33:56.448Z,25.57
2023-04-17T00:36:23.303Z,24.83
2023-04-17T00:38:50.544Z,26.37
2023-04-17T00:41:17.842Z,25.20
2023-04-17T00:43:46.445Z,21.60
2023-04-17T00:46:13.537Z,25.97
2023-04-17T00:48:41.334Z,22.10
2023-04-17T00:51:08.583Z,23.50
2023-04-17T00:53:36.865Z,24.17
2023-04-17T00:56:05.559Z,25.47
2023-04-17T00:58:33.265Z,27.17
2023-04-17T01:01:01.569Z,26.70
2023-04-17T01:03:30.166Z,22.80
2023-04-17T01:05:57.343Z,24.13
2023-04-17T01:08:24.751Z,27.67
2023-04-17T01:10:51.663Z,24.10
2023-04-17T01:13:18.674Z,27.87
2023-04-17T01:15:46.928Z,26.50
2023-04-17T01:18:16.918Z,25.47
2023-04-17T01:20:43.810Z,27.53
2023-04-17T01:23:12.054Z,25.93
2023-04-17T01:25:40.411Z,27.67
2023-04-17T01:28:07.815Z,24.03
2023-04-17T01:30:35.298Z,25.03
2023-04-17T01:33:02.685Z,27.10
2023-04-17T01:35:29.609Z,23.93
2023-04-17T01:37:56.914Z,24.30
2023-04-17T01:40:23.801Z,27.37
2023-04-17T01:42:52.360Z,22.57
2023-04-17T01:45:19.360Z,27.00
2023-04-17T01:47:47.559Z,28.97
2023-04-17T01:50:14.604Z,23.50
2023-04-17T01:52:41.796Z,28.63
2023-04-17T01:55:09.559Z,26.23
2023-04-17T01:57:37.028Z,29.40
2023-04-17T02:00:10.665Z,22.13
2023-04-17T02:02:38.055Z,26.97
2023-04-17T02:05:05.855Z,26.70
2023-04-17T02:07:33.003Z,22.57
2023-04-17T02:09:59.911Z,24.50
2023-04-17T02:12:27.111Z,24.90
2023-04-17T02:14:54.014Z,26.67
2023-04-17T02:17:22.681Z,25.37
2023-04-17T02:19:49.737Z,25.67
2023-04-17T02:22:18.950Z,27.00
2023-04-17T02:24:45.898Z,24.00
2023-04-17T02:27:13.155Z,24.70
2023-04-17T02:29:40.028Z,24.37
2023-04-17T02:32:07.233Z,24.23
2023-04-17T02:34:35.629Z,28.50
2023-04-17T02:37:02.563Z,26.87
2023-04-17T02:39:31.110Z,27.00
2023-04-17T02:41:58.405Z,28.67
2023-04-17T02:44:25.442Z,28.90
2023-04-17T02:46:52.666Z,23.80
2023-04-17T02:49:19.583Z,25.10
2023-04-17T02:51:48.345Z,26.17
2023-04-17T02:54:15.259Z,24.23
2023-04-17T02:56:42.252Z,24.13
2023-04-17T02:59:09.445Z,21.70
2023-04-17T03:01:38.987Z,25.03
2023-04-17T03:04:06.202Z,25.00
2023-04-17T03:06:33.903Z,23.07
2023-04-17T03:09:02.946Z,24.53
2023-04-17T03:11:30.150Z,25.40
2023-04-17T03:13:56.959Z,23.67
2023-04-17T03:16:24.410Z,21.90
2023-04-17T03:18:51.342Z,26.10
2023-04-17T03:21:18.258Z,24.97
2023-04-17T03:23:45.273Z,29.23
2023-04-17T03:26:14.396Z,24.87
2023-04-17T03:28:41.232Z,26.77
2023-04-17T03:31:08.497Z,26.90
2023-04-17T03:33:35.426Z,25.37
2023-04-17T03:36:02.643Z,20.77
2023-04-17T03:38:29.620Z,27.50
2023-04-17T03:40:56.943Z,21.90
2023-04-17T03:43:25.330Z,23.47
2023-04-17T03:45:53.015Z,21.83
2023-04-17T03:48:19.908Z,27.37
2023-04-17T03:50:47.324Z,29.97
2023-04-17T03:53:14.260Z,24.50
2023-04-17T03:55:41.643Z,24.43
2023-04-17T03:58:08.510Z,27.57
2023-04-17T04:00:37.746Z,26.50
2023-04-17T04:03:04.945Z,26.50
2023-04-17T04:05:32.310Z,22.07
2023-04-17T04:07:59.324Z,25.93
2023-04-17T04:10:26.632Z,22.97
2023-04-17T04:12:53.643Z,29.43
2023-04-17T04:15:21.030Z,23.13
2023-04-17T04:17:49.274Z,25.00
2023-04-17T04:20:16.642Z,29.00
2023-04-17T04:22:44.676Z,23.03
2023-04-17T04:25:12.662Z,26.03
2023-04-17T04:27:39.699Z,22.53
2023-04-17T04:30:10.655Z,24.60
2023-04-17T04:32:37.673Z,22.23
2023-04-17T04:35:07.861Z,23.07
2023-04-17T04:37:35.970Z,30.17
2023-04-17T04:40:10.959Z,24.87
2023-04-17T04:42:39.660Z,20.33
2023-04-17T04:45:08.213Z,20.23
2023-04-17T04:47:36.067Z,24.10
2023-04-17T04:50:03.537Z,27.27
2023-04-17T04:52:32.150Z,26.73
2023-04-17T04:54:59.398Z,28.23
2023-04-17T04:57:27.029Z,23.97
2023-04-17T04:59:54.322Z,23.03
2023-04-17T05:02:21.492Z,25.27
2023-04-17T05:04:48.848Z,22.57
2023-04-17T05:07:15.926Z,22.50
2023-04-17T05:09:44.560Z,25.57
2023-04-17T05:12:11.485Z,23.13
2023-04-17T05:14:39.750Z,25.00
2023-04-17T05:17:07.198Z,25.40
2023-04-17T05:19:34.479Z,28.37
2023-04-17T05:22:01.445Z,22.97
2023-04-17T05:24:28.732Z,28.23
2023-04-17T05:26:57.223Z,22.40
2023-04-17T05:29:25.735Z,27.23
2023-04-17T05:31:52.838Z,23.50
2023-04-17T05:34:20.146Z,26.27
2023-04-17T05:36:47.368Z,32.77
2023-04-17T05:39:14.274Z,26.23
2023-04-17T05:41:41.508Z,24.30
2023-04-17T05:44:09.900Z,21.80
2023-04-17T05:46:37.203Z,25.07
2023-04-17T05:49:04.131Z,25.67
2023-04-17T05:51:31.385Z,26.97
2023-04-17T05:53:58.323Z,25.27
2023-04-17T05:56:26.258Z,29.73
2023-04-17T05:58:53.097Z,26.53
2023-04-17T06:01:22.788Z,25.40
2023-04-17T06:03:49.814Z,25.87
2023-04-17T06:06:17.411Z,27.43
2023-04-17T06:08:44.586Z,26.13
2023-04-17T06:11:12.235Z,22.70
2023-04-17T06:13:39.192Z,24.63
2023-04-17T06:16:06.948Z,24.37
2023-04-17T06:18:35.222Z,25.80
2023-04-17T06:21:02.404Z,32.67
2023-04-17T06:23:29.360Z,27.17
2023-04-17T06:25:57.044Z,24.43
2023-04-17T06:28:24.084Z,27.10
2023-04-17T06:30:51.151Z,28.07
2023-04-17T06:33:18.039Z,23.70
2023-04-17T06:35:46.589Z,27.90
2023-04-17T06:38:13.727Z,21.23
2023-04-17T06:40:40.829Z,21.47
2023-04-17T06:43:07.698Z,21.43
2023-04-17T06:45:34.844Z,25.77
2023-04-17T06:48:02.088Z,22.10
2023-04-17T06:50:29.586Z,26.43
2023-04-17T06:52:57.791Z,22.40
2023-04-17T06:55:24.998Z,22.67
2023-04-17T06:57:51.991Z,24.50
2023-04-17T07:00:20.850Z,23.60
2023-04-17T07:02:47.910Z,18.93
2023-04-17T07:05:14.940Z,22.33
2023-04-17T07:07:41.910Z,23.47
2023-04-17T07:10:10.692Z,25.10
2023-04-17T07:12:37.704Z,22.10
2023-04-17T07:15:05.182Z,20.67
2023-04-17T07:17:32.437Z,21.50
2023-04-17T07:19:59.371Z,20.00
2023-04-17T07:22:27.395Z,23.90
2023-04-17T07:24:54.428Z,26.07
2023-04-17T07:27:22.981Z,20.27
2023-04-17T07:29:54.644Z,24.63
2023-04-17T07:32:22.258Z,18.67
2023-04-17T07:34:49.160Z,19.17
2023-04-17T07:37:16.252Z,17.63
2023-04-17T07:39:43.282Z,20.47
2023-04-17T07:42:11.708Z,20.03
2023-04-17T07:44:39.977Z,22.73
2023-04-17T07:47:07.313Z,21.17
2023-04-17T07:49:34.387Z,27.00
2023-04-17T07:52:01.703Z,25.50
2023-04-17T07:54:28.552Z,20.00
2023-04-17T07:56:58.591Z,20.63
2023-04-17T07:59:25.517Z,23.00
2023-04-17T08:01:53.862Z,21.40
2023-04-17T08:04:21.250Z,21.03
2023-04-17T08:06:49.149Z,21.20
2023-04-17T08:09:15.989Z,27.23
2023-04-17T08:11:56.276Z,18.67
2023-04-17T08:14:24.429Z,22.80
2023-04-17T08:16:52.834Z,21.13
2023-04-17T08:19:19.835Z,19.63
2023-04-17T08:21:47.756Z,22.90
2023-04-17T08:24:14.998Z,18.30
2023-04-17T08:26:43.149Z,25.40
2023-04-17T08:29:10.035Z,19.70
2023-04-17T08:31:37.008Z,23.93
2023-04-17T08:34:13.810Z,17.53
2023-04-17T08:36:42.697Z,23.60
2023-04-17T08:39:12.022Z,20.37
2023-04-17T08:41:44.555Z,14.97
2023-04-17T08:44:11.380Z,16.23
2023-04-17T08:46:39.621Z,17.23
2023-04-17T08:49:08.196Z,19.07
2023-04-17T08:51:36.120Z,18.60
2023-04-17T08:54:03.036Z,20.30
2023-04-17T08:56:30.949Z,21.13
2023-04-17T08:58:58.118Z,20.23
2023-04-17T09:01:25.445Z,15.03
2023-04-17T09:03:52.566Z,16.97
2023-04-17T09:06:21.389Z,20.53
2023-04-17T09:08:59.191Z,16.67
2023-04-17T09:11:27.098Z,28.70
2023-04-17T09:13:54.458Z,14.30
2023-04-17T09:16:21.462Z,20.80
2023-04-17T09:18:49.378Z,15.30
2023-04-17T09:21:20.886Z,18.93
2023-04-17T09:23:50.733Z,12.70
2023-04-17T09:26:19.565Z,15.07
2023-04-17T09:29:08.873Z,18.90
2023-04-17T09:31:37.480Z,17.67
2023-04-17T09:34:07.589Z,12.90
2023-04-17T09:36:36.875Z,12.23
2023-04-17T09:39:16.051Z,12.63
2023-04-17T09:41:42.938Z,17.40
2023-04-17T09:44:12.256Z,9.17
2023-04-17T09:46:43.019Z,11.97
2023-04-17T09:49:18.653Z,16.87
2023-04-17T09:51:46.206Z,18.47
2023-04-17T09:54:15.980Z,17.07
2023-04-17T09:56:43.901Z,13.83
2023-04-17T09:59:10.983Z,14.37
2023-04-17T10:01:38.716Z,15.23
2023-04-17T10:04:06.224Z,13.23
2023-04-17T10:06:34.799Z,21.87
2023-04-17T10:09:02.606Z,13.33
2023-04-17T10:11:36.516Z,17.27
2023-04-17T10:14:09.767Z,15.00
2023-04-17T10:16:38.101Z,10.53
2023-04-17T10:19:24.783Z,12.90
2023-04-17T10:22:25.457Z,10.77
2023-04-17T10:25:12.921Z,12.53
2023-04-17T10:27:46.430Z,11.77
2023-04-17T10:30:14.286Z,14.30
2023-04-17T10:32:46.750Z,15.43
2023-04-17T10:35:35.930Z,11.93
2023-04-17T10:38:05.711Z,15.77
2023-04-17T10:40:34.386Z,14.70
2023-04-17T10:43:26.418Z,13.77
2023-04-17T10:45:55.659Z,14.37
2023-04-17T10:48:27.800Z,17.42
2023-04-17T10:50:56.004Z,12.95
2023-04-17T10:53:44.120Z,14.90
2023-04-17T10:56:12.669Z,14.02
2023-04-17T10:58:57.620Z,16.58
2023-04-17T11:01:27.566Z,13.45
2023-04-17T11:03:56.309Z,11.13
2023-04-17T11:06:27.474Z,11.25
2023-04-17T11:08:56.804Z,9.23
2023-04-17T11:11:40.022Z,12.15
2023-04-17T11:14:14.693Z,10.57
2023-04-17T11:16:43.579Z,12.32
2023-04-17T11:19:12.028Z,10.57
2023-04-17T11:21:40.035Z,14.35
2023-04-17T11:24:06.901Z,12.40
2023-04-17T11:26:43.113Z,12.20
2023-04-17T11:29:15.520Z,10.43
2023-04-17T11:31:42.834Z,12.65
2023-04-17T11:34:09.891Z,11.50
2023-04-17T11:36:37.180Z,8.45
2023-04-17T11:39:04.929Z,7.80
2023-04-17T11:41:37.076Z,11.23
2023-04-17T11:44:03.971Z,12.68
2023-04-17T11:46:32.186Z,16.20
2023-04-17T11:48:59.103Z,11.07
2023-04-17T11:51:27.072Z,10.25
2023-04-17T11:53:55.586Z,12.10
2023-04-17T11:56:28.580Z,11.13
2023-04-17T11:58:57.012Z,16.05
2023-04-17T12:01:25.916Z,9.50
2023-04-17T12:03:55.291Z,12.85
2023-04-17T12:06:22.979Z,8.60
2023-04-17T12:08:51.387Z,16.02
2023-04-17T12:11:27.256Z,12.90
2023-04-17T12:13:55.189Z,9.48
2023-04-17T12:16:24.844Z,6.93
2023-04-17T12:18:52.363Z,11.02
2023-04-17T12:21:20.803Z,9.50
2023-04-17T12:23:47.906Z,9.75
2023-04-17T12:26:15.100Z,8.50
2023-04-17T12:28:42.107Z,8.63
2023-04-17T12:31:09.786Z,11.50
2023-04-17T12:33:36.631Z,13.43
2023-04-17T12:36:05.675Z,13.57
2023-04-17T12:38:33.991Z,10.18
2023-04-17T12:41:01.293Z,11.00
2023-04-17T12:43:28.136Z,12.68
2023-04-17T12:45:55.228Z,13.70
2023-04-17T12:48:22.019Z,11.70
2023-04-17T12:50:49.122Z,12.70
2023-04-17T12:53:16.140Z,9.70
2023-04-17T12:55:44.722Z,8.75
2023-04-17T12:58:13.031Z,11.57
2023-04-17T13:00:44.088Z,7.50
2023-04-17T13:03:12.129Z,12.75
2023-04-17T13:05:39.860Z,9.93
2023-04-17T13:08:09.652Z,9.82
2023-04-17T13:10:36.888Z,7.85
2023-04-17T13:13:05.042Z,14.80
2023-04-17T13:15:32.028Z,13.27
2023-04-17T13:17:58.941Z,9.00
2023-04-17T13:20:26.145Z,12.98
2023-04-17T13:22:53.034Z,14.70
2023-04-17T13:25:20.411Z,14.15
2023-04-17T13:27:47.239Z,13.50
2023-04-17T13:30:15.845Z,13.40
2023-04-17T13:32:43.024Z,12.00
2023-04-17T13:35:13.352Z,11.02
2023-04-17T13:37:40.326Z,13.60
2023-04-17T13:40:11.036Z,12.85
2023-04-17T13:42:38.076Z,9.05
2023-04-17T13:45:06.467Z,8.82
2023-04-17T13:47:34.703Z,10.68
2023-04-17T13:50:01.979Z,12.88
2023-04-17T13:52:28.967Z,12.65
2023-04-17T13:54:56.201Z,13.80
2023-04-17T13:57:23.496Z,13.07
2023-04-17T13:59:50.413Z,8.65
2023-04-17T14:02:17.367Z,11.20
2023-04-17T14:04:45.895Z,10.10
2023-04-17T14:07:15.266Z,8.68
2023-04-17T14:09:42.395Z,10.70
2023-04-17T14:12:09.208Z,14.27
2023-04-17T14:14:36.271Z,16.20
2023-04-17T14:17:04.097Z,12.55
2023-04-17T14:19:31.455Z,9.13
2023-04-17T14:21:59.640Z,8.50
2023-04-17T14:24:26.564Z,10.70
2023-04-17T14:26:53.627Z,8.73
2023-04-17T14:29:21.199Z,10.55
2023-04-17T14:31:48.148Z,11.10
2023-04-17T14:34:15.592Z,12.57
2023-04-17T14:36:43.511Z,10.77
2023-04-17T14:39:12.418Z,9.27
2023-04-17T14:41:39.540Z,10.73
2023-04-17T14:44:06.893Z,8.38
2023-04-17T14:46:33.889Z,12.77
2023-04-17T14:49:00.760Z,6.85
2023-04-17T14:51:30.430Z,10.57
2023-04-17T14:53:58.151Z,8.63
2023-04-17T14:56:26.519Z,5.95
2023-04-17T14:58:53.343Z,7.25
2023-04-17T15:01:20.578Z,7.00
2023-04-17T15:03:48.689Z,7.20
2023-04-17T15:06:16.399Z,8.32
2023-04-17T15:08:43.443Z,11.38
2023-04-17T15:11:10.440Z,12.43
2023-04-17T15:13:40.319Z,13.68
2023-04-17T15:16:09.637Z,7.45
2023-04-17T15:18:36.606Z,9.65
2023-04-17T15:21:04.275Z,7.00
2023-04-17T15:23:31.648Z,7.97
2023-04-17T15:26:01.455Z,7.00
2023-04-17T15:28:28.624Z,7.22
2023-04-17T15:30:57.539Z,12.55
2023-04-17T15:33:24.321Z,10.13
2023-04-17T15:35:55.010Z,6.18
2023-04-17T15:38:22.028Z,11.85
2023-04-17T15:40:49.192Z,6.75
2023-04-17T15:43:16.300Z,7.22
2023-04-17T15:45:43.147Z,7.47
2023-04-17T15:48:11.508Z,12.35
2023-04-17T15:50:38.369Z,7.25
2023-04-17T15:53:06.157Z,6.60
2023-04-17T15:55:39.419Z,11.57
2023-04-17T15:58:06.251Z,9.65
2023-04-17T16:00:34.051Z,8.90
2023-04-17T16:03:01.039Z,6.50
2023-04-17T16:05:29.794Z,7.45
2023-04-17T16:07:56.604Z,8.90
2023-04-17T16:10:23.881Z,7.55
2023-04-17T16:12:52.083Z,10.48
2023-04-17T16:15:19.320Z,8.63
2023-04-17T16:17:48.325Z,10.38
2023-04-17T16:20:16.053Z,10.48
2023-04-17T16:22:44.194Z,10.82
2023-04-17T16:25:13.957Z,8.30
2023-04-17T16:27:40.913Z,12.95
2023-04-17T16:30:10.240Z,8.82
2023-04-17T16:32:37.183Z,8.30
2023-04-17T16:35:04.991Z,7.85
2023-04-17T16:37:31.863Z,11.57
2023-04-17T16:40:04.600Z,10.90
2023-04-17T16:42:32.100Z,8.98
2023-04-17T16:44:59.038Z,10.32
2023-04-17T16:47:26.034Z,9.38
2023-04-17T16:49:53.239Z,10.90
2023-04-17T16:52:20.056Z,9.93
2023-04-17T16:54:47.379Z,10.50
2023-04-17T16:57:15.709Z,13.57
2023-04-17T16:59:42.889Z,16.83
2023-04-17T17:02:09.743Z,11.50
2023-04-17T17:04:36.950Z,10.87
2023-04-17T17:07:03.825Z,12.30
2023-04-17T17:09:30.782Z,14.77
2023-04-17T17:11:57.629Z,13.33
2023-04-17T17:14:25.968Z,12.87
2023-04-17T17:16:53.335Z,10.77
2023-04-17T17:19:20.872Z,14.93
2023-04-17T17:21:47.706Z,12.73
2023-04-17T17:24:14.903Z,10.80
2023-04-17T17:26:41.751Z,12.07
2023-04-17T17:29:08.609Z,13.17
2023-04-17T17:31:36.766Z,16.20
2023-04-17T17:34:17.062Z,16.30
2023-04-17T17:36:49.376Z,10.47
2023-04-17T17:39:16.445Z,10.10
2023-04-17T17:41:45.210Z,10.43
2023-04-17T17:44:14.433Z,11.23
2023-04-17T17:46:42.922Z,10.00
2023-04-17T17:49:09.973Z,10.70
2023-04-17T17:51:36.892Z,9.67
2023-04-17T17:54:03.942Z,9.03
2023-04-17T17:56:31.081Z,11.40
2023-04-17T17:58:58.366Z,11.83
2023-04-17T18:01:25.353Z,9.73
2023-04-17T18:03:54.170Z,10.43
2023-04-17T18:06:21.479Z,8.33
2023-04-17T18:08:48.463Z,11.17
2023-04-17T18:11:15.372Z,8.80
2023-04-17T18:13:42.129Z,9.53
2023-04-17T18:16:09.995Z,9.93
2023-04-17T18:18:36.954Z,10.23
2023-04-17T18:21:07.765Z,11.00
2023-04-17T18:23:35.103Z,13.17
2023-04-17T18:26:03.234Z,10.97
2023-04-17T18:28:30.597Z,9.33
2023-04-17T18:30:57.552Z,13.93
2023-04-17T18:33:24.675Z,9.40
2023-04-17T18:35:51.965Z,8.33
2023-04-17T18:38:20.186Z,9.03
2023-04-17T18:40:47.276Z,8.57
2023-04-17T18:43:14.064Z,6.83
2023-04-17T18:45:41.343Z,7.63
2023-04-17T18:48:08.770Z,9.20
2023-04-17T18:50:38.696Z,6.30
2023-04-17T18:53:05.584Z,6.80
2023-04-17T18:55:35.665Z,7.43
2023-04-17T18:58:02.940Z,5.87
2023-04-17T19:00:29.859Z,5.87
2023-04-17T19:02:56.798Z,4.57
2023-04-17T19:05:25.592Z,4.90
2023-04-17T19:07:52.546Z,3.80
2023-04-17T19:10:19.597Z,3.97
2023-04-17T19:12:47.896Z,3.93
2023-04-17T19:15:18.004Z,3.83
2023-04-17T19:17:44.874Z,3.50
2023-04-17T19:20:12.162Z,4.30
2023-04-17T19:22:39.121Z,5.67
2023-04-17T19:25:06.701Z,4.67
2023-04-17T19:27:33.559Z,3.83
2023-04-17T19:30:01.826Z,3.77
2023-04-17T19:32:30.393Z,3.90
2023-04-17T19:34:59.183Z,3.70
2023-04-17T19:37:26.073Z,4.20
2023-04-17T19:39:56.491Z,4.30
2023-04-17T19:42:23.769Z,6.00
2023-04-17T19:44:50.658Z,4.37
2023-04-17T19:47:18.867Z,4.73
2023-04-17T19:49:46.071Z,4.43
2023-04-17T19:52:12.921Z,4.50
2023-04-17T19:54:40.514Z,4.20
2023-04-17T19:57:07.331Z,4.50
2023-04-17T19:59:34.599Z,5.37
2023-04-17T20:02:01.475Z,10.80
2023-04-17T20:04:30.065Z,4.30
2023-04-17T20:06:57.733Z,4.40
2023-04-17T20:09:24.927Z,4.37
2023-04-17T20:11:51.812Z,4.30
2023-04-17T20:14:19.997Z,4.37
2023-04-17T20:16:49.829Z,4.20
2023-04-17T20:19:16.693Z,4.60
2023-04-17T20:21:46.765Z,4.40
2023-04-17T20:24:15.715Z,4.50
2023-04-17T20:26:44.180Z,5.60
2023-04-17T20:29:11.548Z,4.47
2023-04-17T20:31:38.939Z,4.73
2023-04-17T20:34:06.037Z,4.40
2023-04-17T20:36:32.925Z,4.37
2023-04-17T20:39:01.417Z,4.70
2023-04-17T20:41:28.310Z,4.60
2023-04-17T20:43:59.423Z,4.73
2023-04-17T20:46:26.500Z,6.10
2023-04-17T20:48:53.711Z,5.13
2023-04-17T20:51:21.408Z,5.47
2023-04-17T20:53:48.583Z,10.57
2023-04-17T20:56:16.897Z,5.20
2023-04-17T20:58:44.402Z,8.03
2023-04-17T21:01:11.215Z,5.00
2023-04-17T21:03:38.653Z,4.87
2023-04-17T21:06:05.847Z,5.77
2023-04-17T21:08:32.794Z,7.80
2023-04-17T21:11:00.385Z,5.13
2023-04-17T21:13:28.879Z,5.70
2023-04-17T21:15:55.737Z,6.13
2023-04-17T21:18:23.067Z,6.07
2023-04-17T21:20:49.822Z,5.50
2023-04-17T21:23:16.949Z,5.50
2023-04-17T21:25:43.776Z,5.80
2023-04-17T21:28:10.945Z,6.90
2023-04-17T21:30:39.193Z,11.83
2023-04-17T21:33:06.370Z,6.70
2023-04-17T21:35:34.838Z,5.93
2023-04-17T21:38:01.686Z,6.00
2023-04-17T21:40:33.112Z,7.23
2023-04-17T21:43:00.584Z,8.23
2023-04-17T21:45:27.407Z,6.90
2023-04-17T21:47:56.283Z,8.10
2023-04-17T21:50:23.159Z,7.33
2023-04-17T21:52:50.411Z,8.80
2023-04-17T21:55:17.396Z,9.37
2023-04-17T21:57:44.520Z,11.40
2023-04-17T22:00:12.809Z,12.20
2023-04-17T22:02:40.233Z,9.40
2023-04-17T22:05:08.902Z,10.13
2023-04-17T22:07:47.284Z,9.30
2023-04-17T22:10:18.510Z,10.37
2023-04-17T22:12:45.740Z,13.07
2023-04-17T22:15:12.657Z,10.70
2023-04-17T22:17:40.357Z,12.60
2023-04-17T22:20:09.953Z,11.00
2023-04-17T22:22:37.074Z,9.80
2023-04-17T22:25:04.555Z,9.73
2023-04-17T22:27:31.726Z,13.47
2023-04-17T22:29:58.490Z,12.43
2023-04-17T22:32:25.657Z,10.73
2023-04-17T22:34:52.552Z,10.67
2023-04-17T22:37:21.434Z,9.33
2023-04-17T22:39:49.086Z,14.03
2023-04-17T22:42:16.223Z,10.13
2023-04-17T22:44:43.111Z,13.27
2023-04-17T22:47:10.126Z,10.37
2023-04-17T22:49:38.078Z,10.33
2023-04-17T22:52:06.489Z,13.37
2023-04-17T22:54:34.887Z,11.37
2023-04-17T22:57:04.814Z,9.87
2023-04-17T22:59:31.671Z,10.00
2023-04-17T23:01:59.068Z,12.37
2023-04-17T23:04:26.040Z,10.80
2023-04-17T23:06:53.166Z,9.57
2023-04-17T23:09:20.112Z,11.93
2023-04-17T23:11:49.971Z,11.47
2023-04-17T23:14:17.283Z,9.63
2023-04-17T23:16:44.113Z,11.00
2023-04-17T23:19:10.935Z,12.73
2023-04-17T23:21:37.824Z,11.73
2023-04-17T23:24:04.640Z,9.60
2023-04-17T23:26:31.999Z,10.93
2023-04-17T23:29:00.208Z,13.40
2023-04-17T23:31:27.367Z,11.83
2023-04-17T23:33:54.168Z,12.73
2023-04-17T23:36:21.235Z,12.67
2023-04-17T23:38:48.054Z,13.10
2023-04-17T23:41:14.928Z,10.53
2023-04-17T23:43:41.719Z,13.30
2023-04-17T23:46:10.262Z,12.13
2023-04-17T23:48:37.096Z,11.60
2023-04-17T23:51:04.635Z,13.70
2023-04-17T23:53:31.425Z,11.97
2023-04-17T23:55:58.571Z,16.93
2023-04-17T23:58:25.524Z,16.33
